sensor_id;sensor_type;location;lat;lon;timestamp;temperature;humidity
8008;DHT22;4049;49.468;11.200;2022-09-16T00:00:53;13.10;99.90
8008;DHT22;4049;49.468;11.200;2022-09-16T00:03:21;13.10;99.90
8008;DHT22;4049;49.468;11.200;2022-09-16T00:05:49;13.10;99.90
8008;DHT22;4049;49.468;11.200;2022-09-16T00:08:18;13.10;99.90
8008;DHT22;4049;49.468;11.200;2022-09-16T00:10:47;13.10;99.90
8008;DHT22;4049;49.468;11.200;2022-09-16T00:13:15;13.10;99.90
8008;DHT22;4049;49.468;11.200;2022-09-16T00:15:43;13.10;99.90
8008;DHT22;4049;49.468;11.200;2022-09-16T00:18:10;13.20;99.90
8008;DHT22;4049;49.468;11.200;2022-09-16T00:20:42;13.20;99.90
8008;DHT22;4049;49.468;11.200;2022-09-16T00:23:09;13.10;99.90
8008;DHT22;4049;49.468;11.200;2022-09-16T00:25:36;13.20;99.90
8008;DHT22;4049;49.468;11.200;2022-09-16T00:28:04;13.20;99.90
8008;DHT22;4049;49.468;11.200;2022-09-16T00:30:31;13.10;99.90
8008;DHT22;4049;49.468;11.200;2022-09-16T00:32:58;13.20;99.90
8008;DHT22;4049;49.468;11.200;2022-09-16T00:35:25;13.20;99.90
8008;DHT22;4049;49.468;11.200;2022-09-16T00:37:52;13.20;99.90
8008;DHT22;4049;49.468;11.200;2022-09-16T00:40:19;13.10;99.90
8008;DHT22;4049;49.468;11.200;2022-09-16T00:42:46;13.10;99.90
8008;DHT22;4049;49.468;11.200;2022-09-16T00:45:16;13.10;99.90
8008;DHT22;4049;49.468;11.200;2022-09-16T00:47:46;13.10;99.90
8008;DHT22;4049;49.468;11.200;2022-09-16T00:50:18;13.10;99.90
8008;DHT22;4049;49.468;11.200;2022-09-16T00:52:47;13.10;99.90
8008;DHT22;4049;49.468;11.200;2022-09-16T00:55:18;13.10;99.90
8008;DHT22;4049;49.468;11.200;2022-09-16T00:57:47;13.10;99.90
8008;DHT22;4049;49.468;11.200;2022-09-16T01:00:16;13.10;99.90
8008;DHT22;4049;49.468;11.200;2022-09-16T01:02:44;13.10;99.90
8008;DHT22;4049;49.468;11.200;2022-09-16T01:05:15;13.10;99.90
8008;DHT22;4049;49.468;11.200;2022-09-16T01:07:44;13.10;99.90
8008;DHT22;4049;49.468;11.200;2022-09-16T01:10:12;13.10;99.90
8008;DHT22;4049;49.468;11.200;2022-09-16T01:12:41;13.10;99.90
8008;DHT22;4049;49.468;11.200;2022-09-16T01:15:11;13.10;99.90
8008;DHT22;4049;49.468;11.200;2022-09-16T01:17:49;13.10;99.90
8008;DHT22;4049;49.468;11.200;2022-09-16T01:20:45;13.10;99.90
8008;DHT22;4049;49.468;11.200;2022-09-16T01:29:38;13.00;99.90
8008;DHT22;4049;49.468;11.200;2022-09-16T01:32:14;13.00;99.90
8008;DHT22;4049;49.468;11.200;2022-09-16T01:34:48;13.00;99.90
8008;DHT22;4049;49.468;11.200;2022-09-16T01:37:24;13.00;99.90
8008;DHT22;4049;49.468;11.200;2022-09-16T01:40:01;13.00;99.90
8008;DHT22;4049;49.468;11.200;2022-09-16T01:42:37;13.00;99.90
8008;DHT22;4049;49.468;11.200;2022-09-16T01:45:08;13.00;99.90
8008;DHT22;4049;49.468;11.200;2022-09-16T01:47:47;13.00;99.90
8008;DHT22;4049;49.468;11.200;2022-09-16T01:50:19;12.90;99.90
8008;DHT22;4049;49.468;11.200;2022-09-16T01:52:56;12.90;99.90
8008;DHT22;4049;49.468;11.200;2022-09-16T01:55:29;13.00;99.90
8008;DHT22;4049;49.468;11.200;2022-09-16T01:58:02;12.90;99.90
8008;DHT22;4049;49.468;11.200;2022-09-16T02:00:32;13.00;99.90
8008;DHT22;4049;49.468;11.200;2022-09-16T02:03:02;13.00;99.90
8008;DHT22;4049;49.468;11.200;2022-09-16T02:05:34;12.90;99.90
8008;DHT22;4049;49.468;11.200;2022-09-16T02:08:06;12.90;99.90
8008;DHT22;4049;49.468;11.200;2022-09-16T02:10:38;12.90;99.90
8008;DHT22;4049;49.468;11.200;2022-09-16T02:13:11;12.90;99.90
8008;DHT22;4049;49.468;11.200;2022-09-16T02:15:41;12.90;99.90
8008;DHT22;4049;49.468;11.200;2022-09-16T02:18:13;12.90;99.90
8008;DHT22;4049;49.468;11.200;2022-09-16T02:20:44;12.90;99.90
8008;DHT22;4049;49.468;11.200;2022-09-16T02:23:15;12.80;99.90
8008;DHT22;4049;49.468;11.200;2022-09-16T02:25:45;12.80;99.90
8008;DHT22;4049;49.468;11.200;2022-09-16T02:28:16;12.80;99.90
8008;DHT22;4049;49.468;11.200;2022-09-16T02:30:48;12.80;99.90
8008;DHT22;4049;49.468;11.200;2022-09-16T02:33:17;12.80;99.90
8008;DHT22;4049;49.468;11.200;2022-09-16T02:35:47;12.70;99.90
8008;DHT22;4049;49.468;11.200;2022-09-16T02:38:19;12.80;99.90
8008;DHT22;4049;49.468;11.200;2022-09-16T02:40:50;12.80;99.90
8008;DHT22;4049;49.468;11.200;2022-09-16T02:43:18;12.80;99.90
8008;DHT22;4049;49.468;11.200;2022-09-16T02:45:49;12.80;99.90
8008;DHT22;4049;49.468;11.200;2022-09-16T02:48:25;12.80;99.90
8008;DHT22;4049;49.468;11.200;2022-09-16T02:51:01;12.80;99.90
8008;DHT22;4049;49.468;11.200;2022-09-16T02:53:35;12.80;99.90
8008;DHT22;4049;49.468;11.200;2022-09-16T02:56:09;12.80;99.90
8008;DHT22;4049;49.468;11.200;2022-09-16T02:58:39;12.70;99.90
8008;DHT22;4049;49.468;11.200;2022-09-16T03:01:06;12.70;99.90
8008;DHT22;4049;49.468;11.200;2022-09-16T03:03:34;12.70;99.90
8008;DHT22;4049;49.468;11.200;2022-09-16T03:06:12;12.70;99.90
8008;DHT22;4049;49.468;11.200;2022-09-16T03:08:40;12.70;99.90
8008;DHT22;4049;49.468;11.200;2022-09-16T03:14:19;12.70;99.90
8008;DHT22;4049;49.468;11.200;2022-09-16T03:16:55;12.70;99.90
8008;DHT22;4049;49.468;11.200;2022-09-16T03:19:32;12.70;99.90
8008;DHT22;4049;49.468;11.200;2022-09-16T03:22:04;12.60;99.90
8008;DHT22;4049;49.468;11.200;2022-09-16T03:24:50;12.60;99.90
8008;DHT22;4049;49.468;11.200;2022-09-16T03:27:23;12.60;99.90
8008;DHT22;4049;49.468;11.200;2022-09-16T03:29:58;12.60;99.90
8008;DHT22;4049;49.468;11.200;2022-09-16T03:32:30;12.60;99.90
8008;DHT22;4049;49.468;11.200;2022-09-16T03:35:02;12.60;99.90
8008;DHT22;4049;49.468;11.200;2022-09-16T03:37:32;12.70;99.90
8008;DHT22;4049;49.468;11.200;2022-09-16T03:40:05;12.70;99.90
8008;DHT22;4049;49.468;11.200;2022-09-16T03:42:33;12.70;99.90
8008;DHT22;4049;49.468;11.200;2022-09-16T03:45:00;12.70;99.90
8008;DHT22;4049;49.468;11.200;2022-09-16T03:47:27;12.70;99.90
8008;DHT22;4049;49.468;11.200;2022-09-16T03:49:53;12.70;99.90
8008;DHT22;4049;49.468;11.200;2022-09-16T03:52:22;12.70;99.90
8008;DHT22;4049;49.468;11.200;2022-09-16T03:54:49;12.70;99.90
8008;DHT22;4049;49.468;11.200;2022-09-16T03:57:16;12.70;99.90
8008;DHT22;4049;49.468;11.200;2022-09-16T03:59:43;12.70;99.90
8008;DHT22;4049;49.468;11.200;2022-09-16T04:02:09;12.70;99.90
8008;DHT22;4049;49.468;11.200;2022-09-16T04:04:36;12.70;99.90
8008;DHT22;4049;49.468;11.200;2022-09-16T04:07:03;12.60;99.90
8008;DHT22;4049;49.468;11.200;2022-09-16T04:09:32;12.60;99.90
8008;DHT22;4049;49.468;11.200;2022-09-16T04:11:58;12.60;99.90
8008;DHT22;4049;49.468;11.200;2022-09-16T04:14:25;12.60;99.90
8008;DHT22;4049;49.468;11.200;2022-09-16T04:16:53;12.60;99.90
8008;DHT22;4049;49.468;11.200;2022-09-16T04:19:20;12.60;99.90
8008;DHT22;4049;49.468;11.200;2022-09-16T04:21:47;12.60;99.90
8008;DHT22;4049;49.468;11.200;2022-09-16T04:24:14;12.60;99.90
8008;DHT22;4049;49.468;11.200;2022-09-16T04:26:43;12.60;99.90
8008;DHT22;4049;49.468;11.200;2022-09-16T04:29:10;12.60;99.90
8008;DHT22;4049;49.468;11.200;2022-09-16T04:31:37;12.60;99.90
8008;DHT22;4049;49.468;11.200;2022-09-16T04:34:04;12.50;99.90
8008;DHT22;4049;49.468;11.200;2022-09-16T04:36:32;12.50;99.90
8008;DHT22;4049;49.468;11.200;2022-09-16T04:38:59;12.50;99.90
8008;DHT22;4049;49.468;11.200;2022-09-16T04:41:26;12.50;99.90
8008;DHT22;4049;49.468;11.200;2022-09-16T04:43:56;12.40;99.90
8008;DHT22;4049;49.468;11.200;2022-09-16T04:46:24;12.40;99.90
8008;DHT22;4049;49.468;11.200;2022-09-16T04:48:53;12.40;99.90
8008;DHT22;4049;49.468;11.200;2022-09-16T04:51:21;12.40;99.90
8008;DHT22;4049;49.468;11.200;2022-09-16T04:53:48;12.40;99.90
8008;DHT22;4049;49.468;11.200;2022-09-16T04:56:18;12.40;99.90
8008;DHT22;4049;49.468;11.200;2022-09-16T04:58:46;12.40;99.90
8008;DHT22;4049;49.468;11.200;2022-09-16T05:01:16;12.40;99.90
8008;DHT22;4049;49.468;11.200;2022-09-16T05:03:45;12.40;99.90
8008;DHT22;4049;49.468;11.200;2022-09-16T05:06:14;12.40;99.90
8008;DHT22;4049;49.468;11.200;2022-09-16T05:08:40;12.50;99.90
8008;DHT22;4049;49.468;11.200;2022-09-16T05:11:09;12.50;99.90
8008;DHT22;4049;49.468;11.200;2022-09-16T05:13:36;12.50;99.90
8008;DHT22;4049;49.468;11.200;2022-09-16T05:16:04;12.40;99.90
8008;DHT22;4049;49.468;11.200;2022-09-16T05:18:33;12.50;99.90
8008;DHT22;4049;49.468;11.200;2022-09-16T05:21:03;12.50;99.90
8008;DHT22;4049;49.468;11.200;2022-09-16T05:23:30;12.50;99.90
8008;DHT22;4049;49.468;11.200;2022-09-16T05:26:02;12.50;99.90
8008;DHT22;4049;49.468;11.200;2022-09-16T05:28:29;12.40;99.90
8008;DHT22;4049;49.468;11.200;2022-09-16T05:31:06;12.40;99.90
8008;DHT22;4049;49.468;11.200;2022-09-16T05:33:35;12.50;99.90
8008;DHT22;4049;49.468;11.200;2022-09-16T05:36:04;12.50;99.90
8008;DHT22;4049;49.468;11.200;2022-09-16T05:38:30;12.50;99.90
8008;DHT22;4049;49.468;11.200;2022-09-16T05:40:57;12.50;99.90
8008;DHT22;4049;49.468;11.200;2022-09-16T05:43:24;12.50;99.90
8008;DHT22;4049;49.468;11.200;2022-09-16T05:45:52;12.60;99.90
8008;DHT22;4049;49.468;11.200;2022-09-16T05:48:18;12.60;99.90
8008;DHT22;4049;49.468;11.200;2022-09-16T05:50:51;12.50;99.90
8008;DHT22;4049;49.468;11.200;2022-09-16T05:53:19;12.60;99.90
8008;DHT22;4049;49.468;11.200;2022-09-16T05:55:54;12.60;99.90
8008;DHT22;4049;49.468;11.200;2022-09-16T05:58:21;12.60;99.90
8008;DHT22;4049;49.468;11.200;2022-09-16T06:00:48;12.60;99.90
8008;DHT22;4049;49.468;11.200;2022-09-16T06:03:15;12.70;99.90
8008;DHT22;4049;49.468;11.200;2022-09-16T06:05:42;12.70;99.90
8008;DHT22;4049;49.468;11.200;2022-09-16T06:08:11;12.70;99.90
8008;DHT22;4049;49.468;11.200;2022-09-16T06:10:38;12.70;99.90
8008;DHT22;4049;49.468;11.200;2022-09-16T06:13:05;12.70;99.90
8008;DHT22;4049;49.468;11.200;2022-09-16T06:15:32;12.80;99.90
8008;DHT22;4049;49.468;11.200;2022-09-16T06:18:00;12.80;99.90
8008;DHT22;4049;49.468;11.200;2022-09-16T06:20:27;12.80;99.90
8008;DHT22;4049;49.468;11.200;2022-09-16T06:22:54;12.90;99.90
8008;DHT22;4049;49.468;11.200;2022-09-16T06:25:22;12.90;99.90
8008;DHT22;4049;49.468;11.200;2022-09-16T06:27:49;13.00;99.90
8008;DHT22;4049;49.468;11.200;2022-09-16T06:30:16;13.00;99.90
8008;DHT22;4049;49.468;11.200;2022-09-16T06:32:43;13.00;99.90
8008;DHT22;4049;49.468;11.200;2022-09-16T06:35:10;13.10;99.90
8008;DHT22;4049;49.468;11.200;2022-09-16T06:37:37;13.10;99.90
8008;DHT22;4049;49.468;11.200;2022-09-16T06:40:05;13.10;99.90
8008;DHT22;4049;49.468;11.200;2022-09-16T06:42:33;13.10;99.90
8008;DHT22;4049;49.468;11.200;2022-09-16T06:45:00;13.10;99.90
8008;DHT22;4049;49.468;11.200;2022-09-16T06:47:28;13.10;99.90
8008;DHT22;4049;49.468;11.200;2022-09-16T06:49:57;13.20;99.90
8008;DHT22;4049;49.468;11.200;2022-09-16T06:52:24;13.10;99.90
8008;DHT22;4049;49.468;11.200;2022-09-16T06:54:52;13.20;99.90
8008;DHT22;4049;49.468;11.200;2022-09-16T06:57:19;13.10;99.90
8008;DHT22;4049;49.468;11.200;2022-09-16T06:59:49;13.10;99.90
8008;DHT22;4049;49.468;11.200;2022-09-16T07:02:16;13.20;99.90
8008;DHT22;4049;49.468;11.200;2022-09-16T07:04:43;13.20;99.90
8008;DHT22;4049;49.468;11.200;2022-09-16T07:07:10;13.30;99.90
8008;DHT22;4049;49.468;11.200;2022-09-16T07:09:37;13.20;99.90
8008;DHT22;4049;49.468;11.200;2022-09-16T07:12:04;13.30;99.90
8008;DHT22;4049;49.468;11.200;2022-09-16T07:14:31;13.30;99.90
8008;DHT22;4049;49.468;11.200;2022-09-16T07:17:00;13.40;99.90
8008;DHT22;4049;49.468;11.200;2022-09-16T07:19:27;13.50;99.90
8008;DHT22;4049;49.468;11.200;2022-09-16T07:21:54;13.40;99.90
8008;DHT22;4049;49.468;11.200;2022-09-16T07:24:21;13.50;99.90
8008;DHT22;4049;49.468;11.200;2022-09-16T07:26:48;13.50;99.90
8008;DHT22;4049;49.468;11.200;2022-09-16T07:29:16;13.60;99.90
8008;DHT22;4049;49.468;11.200;2022-09-16T07:31:43;13.60;99.90
8008;DHT22;4049;49.468;11.200;2022-09-16T07:34:12;13.60;99.90
8008;DHT22;4049;49.468;11.200;2022-09-16T07:36:40;13.60;99.90
8008;DHT22;4049;49.468;11.200;2022-09-16T07:39:08;13.70;99.90
8008;DHT22;4049;49.468;11.200;2022-09-16T07:41:43;13.70;99.90
8008;DHT22;4049;49.468;11.200;2022-09-16T07:44:13;13.80;99.90
8008;DHT22;4049;49.468;11.200;2022-09-16T07:46:40;13.90;99.90
8008;DHT22;4049;49.468;11.200;2022-09-16T07:49:12;13.90;99.90
8008;DHT22;4049;49.468;11.200;2022-09-16T07:51:40;14.00;99.90
8008;DHT22;4049;49.468;11.200;2022-09-16T07:54:08;14.10;99.90
8008;DHT22;4049;49.468;11.200;2022-09-16T07:56:37;14.10;99.90
8008;DHT22;4049;49.468;11.200;2022-09-16T07:59:09;14.20;99.90
8008;DHT22;4049;49.468;11.200;2022-09-16T08:01:36;14.30;99.90
8008;DHT22;4049;49.468;11.200;2022-09-16T08:04:03;14.30;99.90
8008;DHT22;4049;49.468;11.200;2022-09-16T08:06:32;14.40;99.90
8008;DHT22;4049;49.468;11.200;2022-09-16T08:09:00;14.40;99.90
8008;DHT22;4049;49.468;11.200;2022-09-16T08:11:27;14.40;99.90
8008;DHT22;4049;49.468;11.200;2022-09-16T08:13:56;14.40;99.90
8008;DHT22;4049;49.468;11.200;2022-09-16T08:16:24;14.50;99.90
8008;DHT22;4049;49.468;11.200;2022-09-16T08:18:54;14.50;99.90
8008;DHT22;4049;49.468;11.200;2022-09-16T08:21:23;14.50;99.90
8008;DHT22;4049;49.468;11.200;2022-09-16T08:23:52;14.50;99.90
8008;DHT22;4049;49.468;11.200;2022-09-16T08:26:20;14.60;99.90
8008;DHT22;4049;49.468;11.200;2022-09-16T08:28:47;14.60;99.90
8008;DHT22;4049;49.468;11.200;2022-09-16T08:31:15;14.60;99.90
8008;DHT22;4049;49.468;11.200;2022-09-16T08:33:43;14.60;99.90
8008;DHT22;4049;49.468;11.200;2022-09-16T08:36:12;14.60;99.90
8008;DHT22;4049;49.468;11.200;2022-09-16T08:38:41;14.60;99.90
8008;DHT22;4049;49.468;11.200;2022-09-16T08:41:23;14.70;99.90
8008;DHT22;4049;49.468;11.200;2022-09-16T08:43:58;14.70;99.90
8008;DHT22;4049;49.468;11.200;2022-09-16T08:46:31;14.60;99.90
8008;DHT22;4049;49.468;11.200;2022-09-16T08:49:08;14.60;99.90
8008;DHT22;4049;49.468;11.200;2022-09-16T08:51:40;14.60;99.90
8008;DHT22;4049;49.468;11.200;2022-09-16T08:54:10;14.60;99.90
8008;DHT22;4049;49.468;11.200;2022-09-16T08:56:41;14.60;99.90
8008;DHT22;4049;49.468;11.200;2022-09-16T08:59:13;14.60;99.90
8008;DHT22;4049;49.468;11.200;2022-09-16T09:01:46;14.60;99.90
8008;DHT22;4049;49.468;11.200;2022-09-16T09:04:14;14.70;99.90
8008;DHT22;4049;49.468;11.200;2022-09-16T09:06:57;14.70;99.90
8008;DHT22;4049;49.468;11.200;2022-09-16T09:09:47;14.70;99.90
8008;DHT22;4049;49.468;11.200;2022-09-16T09:12:26;14.70;99.90
8008;DHT22;4049;49.468;11.200;2022-09-16T09:15:13;14.70;99.90
8008;DHT22;4049;49.468;11.200;2022-09-16T09:17:53;14.70;99.90
8008;DHT22;4049;49.468;11.200;2022-09-16T09:20:32;14.70;99.90
8008;DHT22;4049;49.468;11.200;2022-09-16T09:23:11;14.70;99.90
8008;DHT22;4049;49.468;11.200;2022-09-16T09:25:45;14.80;99.90
8008;DHT22;4049;49.468;11.200;2022-09-16T09:28:31;14.80;99.90
8008;DHT22;4049;49.468;11.200;2022-09-16T09:31:09;14.80;99.90
8008;DHT22;4049;49.468;11.200;2022-09-16T09:33:44;14.80;99.90
8008;DHT22;4049;49.468;11.200;2022-09-16T09:39:12;14.90;99.90
8008;DHT22;4049;49.468;11.200;2022-09-16T09:41:45;14.90;99.90
8008;DHT22;4049;49.468;11.200;2022-09-16T09:44:30;14.90;99.90
8008;DHT22;4049;49.468;11.200;2022-09-16T09:47:02;14.90;99.90
8008;DHT22;4049;49.468;11.200;2022-09-16T09:49:33;14.90;99.90
8008;DHT22;4049;49.468;11.200;2022-09-16T09:52:10;14.90;99.90
8008;DHT22;4049;49.468;11.200;2022-09-16T09:54:38;14.80;99.90
8008;DHT22;4049;49.468;11.200;2022-09-16T09:57:10;14.80;99.90
8008;DHT22;4049;49.468;11.200;2022-09-16T09:59:43;14.90;99.90
8008;DHT22;4049;49.468;11.200;2022-09-16T10:02:15;14.90;99.90
8008;DHT22;4049;49.468;11.200;2022-09-16T10:04:43;14.80;99.90
8008;DHT22;4049;49.468;11.200;2022-09-16T10:07:11;14.80;99.90
8008;DHT22;4049;49.468;11.200;2022-09-16T10:09:46;14.80;99.90
8008;DHT22;4049;49.468;11.200;2022-09-16T10:12:13;14.90;99.90
8008;DHT22;4049;49.468;11.200;2022-09-16T10:14:52;14.90;99.90
8008;DHT22;4049;49.468;11.200;2022-09-16T10:17:19;14.90;99.90
8008;DHT22;4049;49.468;11.200;2022-09-16T10:19:52;14.90;99.90
8008;DHT22;4049;49.468;11.200;2022-09-16T10:22:23;15.00;99.90
8008;DHT22;4049;49.468;11.200;2022-09-16T10:24:55;15.00;99.90
8008;DHT22;4049;49.468;11.200;2022-09-16T10:27:25;15.00;99.90
8008;DHT22;4049;49.468;11.200;2022-09-16T10:30:06;15.00;99.90
8008;DHT22;4049;49.468;11.200;2022-09-16T10:32:44;15.10;99.90
8008;DHT22;4049;49.468;11.200;2022-09-16T10:35:17;15.10;99.90
8008;DHT22;4049;49.468;11.200;2022-09-16T10:37:49;15.10;99.90
8008;DHT22;4049;49.468;11.200;2022-09-16T10:40:16;15.10;99.90
8008;DHT22;4049;49.468;11.200;2022-09-16T10:42:46;15.00;99.90
8008;DHT22;4049;49.468;11.200;2022-09-16T10:45:21;15.10;99.90
8008;DHT22;4049;49.468;11.200;2022-09-16T10:47:52;15.20;99.90
8008;DHT22;4049;49.468;11.200;2022-09-16T10:50:20;15.30;99.90
8008;DHT22;4049;49.468;11.200;2022-09-16T10:52:47;15.40;99.90
8008;DHT22;4049;49.468;11.200;2022-09-16T10:55:24;15.40;99.90
8008;DHT22;4049;49.468;11.200;2022-09-16T10:57:52;15.40;99.90
8008;DHT22;4049;49.468;11.200;2022-09-16T11:00:22;15.40;99.90
8008;DHT22;4049;49.468;11.200;2022-09-16T11:03:23;15.30;99.90
8008;DHT22;4049;49.468;11.200;2022-09-16T11:06:04;15.20;99.90
8008;DHT22;4049;49.468;11.200;2022-09-16T11:08:47;15.20;99.90
8008;DHT22;4049;49.468;11.200;2022-09-16T11:11:21;15.10;99.90
8008;DHT22;4049;49.468;11.200;2022-09-16T11:13:55;15.10;99.90
8008;DHT22;4049;49.468;11.200;2022-09-16T11:16:43;15.10;99.90
8008;DHT22;4049;49.468;11.200;2022-09-16T11:19:19;15.10;99.90
8008;DHT22;4049;49.468;11.200;2022-09-16T11:22:03;15.10;99.90
8008;DHT22;4049;49.468;11.200;2022-09-16T11:24:46;15.10;99.90
8008;DHT22;4049;49.468;11.200;2022-09-16T11:27:24;15.10;99.90
8008;DHT22;4049;49.468;11.200;2022-09-16T11:30:06;15.20;99.90
8008;DHT22;4049;49.468;11.200;2022-09-16T11:32:53;15.20;99.90
8008;DHT22;4049;49.468;11.200;2022-09-16T11:35:28;15.20;99.90
8008;DHT22;4049;49.468;11.200;2022-09-16T11:38:04;15.20;99.90
8008;DHT22;4049;49.468;11.200;2022-09-16T11:40:42;15.20;99.90
8008;DHT22;4049;49.468;11.200;2022-09-16T11:43:38;15.30;99.90
8008;DHT22;4049;49.468;11.200;2022-09-16T11:46:12;15.30;99.90
8008;DHT22;4049;49.468;11.200;2022-09-16T11:48:55;15.30;99.90
8008;DHT22;4049;49.468;11.200;2022-09-16T11:51:35;15.30;99.90
8008;DHT22;4049;49.468;11.200;2022-09-16T11:54:18;15.40;99.90
8008;DHT22;4049;49.468;11.200;2022-09-16T11:56:50;15.30;99.90
8008;DHT22;4049;49.468;11.200;2022-09-16T11:59:23;15.20;99.90
8008;DHT22;4049;49.468;11.200;2022-09-16T12:01:55;15.20;99.90
8008;DHT22;4049;49.468;11.200;2022-09-16T12:04:29;15.10;99.90
8008;DHT22;4049;49.468;11.200;2022-09-16T12:07:01;15.20;99.90
8008;DHT22;4049;49.468;11.200;2022-09-16T12:09:37;15.10;99.90
8008;DHT22;4049;49.468;11.200;2022-09-16T12:12:10;15.20;99.90
8008;DHT22;4049;49.468;11.200;2022-09-16T12:14:41;15.30;99.90
8008;DHT22;4049;49.468;11.200;2022-09-16T12:17:15;15.20;99.90
8008;DHT22;4049;49.468;11.200;2022-09-16T12:19:48;15.20;99.90
8008;DHT22;4049;49.468;11.200;2022-09-16T12:22:19;15.20;99.90
8008;DHT22;4049;49.468;11.200;2022-09-16T12:24:53;15.10;99.90
8008;DHT22;4049;49.468;11.200;2022-09-16T12:27:31;15.10;99.90
8008;DHT22;4049;49.468;11.200;2022-09-16T12:30:03;15.10;99.90
8008;DHT22;4049;49.468;11.200;2022-09-16T12:32:36;15.00;99.90
8008;DHT22;4049;49.468;11.200;2022-09-16T12:35:11;15.10;99.90
8008;DHT22;4049;49.468;11.200;2022-09-16T12:37:45;15.10;99.90
8008;DHT22;4049;49.468;11.200;2022-09-16T12:40:16;15.20;99.90
8008;DHT22;4049;49.468;11.200;2022-09-16T12:43:06;15.20;99.90
8008;DHT22;4049;49.468;11.200;2022-09-16T12:45:49;15.30;99.90
8008;DHT22;4049;49.468;11.200;2022-09-16T12:48:35;15.30;99.90
8008;DHT22;4049;49.468;11.200;2022-09-16T12:51:28;15.30;99.90
8008;DHT22;4049;49.468;11.200;2022-09-16T12:54:21;15.30;99.90
8008;DHT22;4049;49.468;11.200;2022-09-16T13:00:18;15.10;99.90
8008;DHT22;4049;49.468;11.200;2022-09-16T13:02:49;15.10;99.90
8008;DHT22;4049;49.468;11.200;2022-09-16T13:05:21;15.10;99.90
8008;DHT22;4049;49.468;11.200;2022-09-16T13:07:52;15.20;99.90
8008;DHT22;4049;49.468;11.200;2022-09-16T13:10:28;15.20;99.90
8008;DHT22;4049;49.468;11.200;2022-09-16T13:12:58;15.30;99.90
8008;DHT22;4049;49.468;11.200;2022-09-16T13:15:27;15.30;99.90
8008;DHT22;4049;49.468;11.200;2022-09-16T13:18:06;15.30;99.90
8008;DHT22;4049;49.468;11.200;2022-09-16T13:20:36;15.30;99.90
8008;DHT22;4049;49.468;11.200;2022-09-16T13:23:12;15.30;99.90
8008;DHT22;4049;49.468;11.200;2022-09-16T13:25:46;15.40;99.90
8008;DHT22;4049;49.468;11.200;2022-09-16T13:28:25;15.50;99.90
8008;DHT22;4049;49.468;11.200;2022-09-16T13:30:53;15.60;99.90
8008;DHT22;4049;49.468;11.200;2022-09-16T13:33:28;15.70;99.90
8008;DHT22;4049;49.468;11.200;2022-09-16T13:36:30;15.80;99.90
8008;DHT22;4049;49.468;11.200;2022-09-16T13:38:59;15.90;99.90
8008;DHT22;4049;49.468;11.200;2022-09-16T13:41:33;15.90;99.90
8008;DHT22;4049;49.468;11.200;2022-09-16T13:44:01;15.90;99.90
8008;DHT22;4049;49.468;11.200;2022-09-16T13:46:34;15.90;99.90
8008;DHT22;4049;49.468;11.200;2022-09-16T13:49:14;15.80;99.90
8008;DHT22;4049;49.468;11.200;2022-09-16T13:51:43;15.70;99.90
8008;DHT22;4049;49.468;11.200;2022-09-16T13:54:31;15.60;99.90
8008;DHT22;4049;49.468;11.200;2022-09-16T14:03:06;15.30;99.90
8008;DHT22;4049;49.468;11.200;2022-09-16T14:05:53;15.10;99.90
8008;DHT22;4049;49.468;11.200;2022-09-16T14:08:31;14.90;99.90
8008;DHT22;4049;49.468;11.200;2022-09-16T14:11:08;14.70;99.90
8008;DHT22;4049;49.468;11.200;2022-09-16T14:13:39;14.60;99.90
8008;DHT22;4049;49.468;11.200;2022-09-16T14:16:13;14.50;99.90
8008;DHT22;4049;49.468;11.200;2022-09-16T14:18:43;14.40;99.90
8008;DHT22;4049;49.468;11.200;2022-09-16T14:21:18;14.20;99.90
8008;DHT22;4049;49.468;11.200;2022-09-16T14:23:45;14.20;99.90
8008;DHT22;4049;49.468;11.200;2022-09-16T14:26:15;14.00;99.90
8008;DHT22;4049;49.468;11.200;2022-09-16T14:28:43;14.00;99.90
8008;DHT22;4049;49.468;11.200;2022-09-16T14:31:14;14.00;99.90
8008;DHT22;4049;49.468;11.200;2022-09-16T14:33:44;14.00;99.90
8008;DHT22;4049;49.468;11.200;2022-09-16T14:36:16;14.00;99.90
8008;DHT22;4049;49.468;11.200;2022-09-16T14:38:46;13.90;99.90
8008;DHT22;4049;49.468;11.200;2022-09-16T14:41:22;13.80;99.90
8008;DHT22;4049;49.468;11.200;2022-09-16T14:43:51;13.70;99.90
8008;DHT22;4049;49.468;11.200;2022-09-16T14:46:18;13.90;99.90
8008;DHT22;4049;49.468;11.200;2022-09-16T14:48:45;13.90;99.90
8008;DHT22;4049;49.468;11.200;2022-09-16T14:51:18;14.10;99.90
8008;DHT22;4049;49.468;11.200;2022-09-16T14:53:53;14.40;99.90
8008;DHT22;4049;49.468;11.200;2022-09-16T14:56:23;14.50;99.90
8008;DHT22;4049;49.468;11.200;2022-09-16T14:58:51;14.60;99.90
8008;DHT22;4049;49.468;11.200;2022-09-16T15:01:22;14.70;99.90
8008;DHT22;4049;49.468;11.200;2022-09-16T15:03:52;14.90;99.90
8008;DHT22;4049;49.468;11.200;2022-09-16T15:06:21;15.00;99.90
8008;DHT22;4049;49.468;11.200;2022-09-16T15:08:53;15.20;99.90
8008;DHT22;4049;49.468;11.200;2022-09-16T15:11:28;15.30;99.90
8008;DHT22;4049;49.468;11.200;2022-09-16T15:13:56;15.40;99.90
8008;DHT22;4049;49.468;11.200;2022-09-16T15:16:24;15.50;99.90
8008;DHT22;4049;49.468;11.200;2022-09-16T15:18:53;15.50;99.90
8008;DHT22;4049;49.468;11.200;2022-09-16T15:21:24;15.50;99.90
8008;DHT22;4049;49.468;11.200;2022-09-16T15:23:54;15.50;99.90
8008;DHT22;4049;49.468;11.200;2022-09-16T15:26:25;15.50;99.90
8008;DHT22;4049;49.468;11.200;2022-09-16T15:28:57;15.50;99.90
8008;DHT22;4049;49.468;11.200;2022-09-16T15:31:32;15.50;99.90
8008;DHT22;4049;49.468;11.200;2022-09-16T15:34:01;15.60;99.90
8008;DHT22;4049;49.468;11.200;2022-09-16T15:36:36;15.60;99.90
8008;DHT22;4049;49.468;11.200;2022-09-16T15:39:05;15.60;99.90
8008;DHT22;4049;49.468;11.200;2022-09-16T15:41:33;15.50;99.90
8008;DHT22;4049;49.468;11.200;2022-09-16T15:44:00;15.50;99.90
8008;DHT22;4049;49.468;11.200;2022-09-16T15:46:27;15.30;99.90
8008;DHT22;4049;49.468;11.200;2022-09-16T15:48:57;15.30;99.90
8008;DHT22;4049;49.468;11.200;2022-09-16T15:51:31;15.30;99.90
8008;DHT22;4049;49.468;11.200;2022-09-16T15:54:05;15.20;99.90
8008;DHT22;4049;49.468;11.200;2022-09-16T15:56:38;15.20;99.90
8008;DHT22;4049;49.468;11.200;2022-09-16T15:59:27;15.10;99.90
8008;DHT22;4049;49.468;11.200;2022-09-16T16:01:57;15.10;99.90
8008;DHT22;4049;49.468;11.200;2022-09-16T16:04:28;15.00;99.90
8008;DHT22;4049;49.468;11.200;2022-09-16T16:06:57;14.90;99.90
8008;DHT22;4049;49.468;11.200;2022-09-16T16:09:39;14.80;99.90
8008;DHT22;4049;49.468;11.200;2022-09-16T16:12:10;14.70;99.90
8008;DHT22;4049;49.468;11.200;2022-09-16T16:14:38;14.60;99.90
8008;DHT22;4049;49.468;11.200;2022-09-16T16:17:08;14.50;99.90
8008;DHT22;4049;49.468;11.200;2022-09-16T16:19:35;14.50;99.90
8008;DHT22;4049;49.468;11.200;2022-09-16T16:22:03;14.40;99.90
8008;DHT22;4049;49.468;11.200;2022-09-16T16:24:30;14.30;99.90
8008;DHT22;4049;49.468;11.200;2022-09-16T16:26:58;14.30;99.90
8008;DHT22;4049;49.468;11.200;2022-09-16T16:29:26;14.20;99.90
8008;DHT22;4049;49.468;11.200;2022-09-16T16:32:05;14.20;99.90
8008;DHT22;4049;49.468;11.200;2022-09-16T16:34:33;14.20;99.90